sensor_id;sensor_type;location;lat;lon;timestamp;temperature;humidity
68387;DHT22;55338;43.062;25.624;2022-08-05T00:00:05;21.10;77.10
68387;DHT22;55338;43.062;25.624;2022-08-05T00:02:31;21.10;77.20
68387;DHT22;55338;43.062;25.624;2022-08-05T00:04:56;21.00;77.10
68387;DHT22;55338;43.062;25.624;2022-08-05T00:07:23;21.00;77.60
68387;DHT22;55338;43.062;25.624;2022-08-05T00:09:49;21.00;77.70
68387;DHT22;55338;43.062;25.624;2022-08-05T00:12:15;20.90;78.00
68387;DHT22;55338;43.062;25.624;2022-08-05T00:14:42;20.90;77.80
68387;DHT22;55338;43.062;25.624;2022-08-05T00:17:08;20.90;77.60
68387;DHT22;55338;43.062;25.624;2022-08-05T00:19:33;20.80;77.80
68387;DHT22;55338;43.062;25.624;2022-08-05T00:22:00;20.90;77.80
68387;DHT22;55338;43.062;25.624;2022-08-05T00:24:26;20.90;77.70
68387;DHT22;55338;43.062;25.624;2022-08-05T00:26:52;20.90;77.50
68387;DHT22;55338;43.062;25.624;2022-08-05T00:29:19;20.90;78.00
68387;DHT22;55338;43.062;25.624;2022-08-05T00:31:47;20.90;78.00
68387;DHT22;55338;43.062;25.624;2022-08-05T00:34:13;20.90;78.10
68387;DHT22;55338;43.062;25.624;2022-08-05T00:36:39;20.80;78.30
68387;DHT22;55338;43.062;25.624;2022-08-05T00:39:05;20.80;78.70
68387;DHT22;55338;43.062;25.624;2022-08-05T00:41:33;20.70;78.60
68387;DHT22;55338;43.062;25.624;2022-08-05T00:43:59;20.80;79.00
68387;DHT22;55338;43.062;25.624;2022-08-05T00:46:25;20.80;78.70
68387;DHT22;55338;43.062;25.624;2022-08-05T00:48:51;20.80;78.30
68387;DHT22;55338;43.062;25.624;2022-08-05T00:51:18;20.80;78.10
68387;DHT22;55338;43.062;25.624;2022-08-05T00:53:44;20.80;78.60
68387;DHT22;55338;43.062;25.624;2022-08-05T00:56:10;20.70;78.70
68387;DHT22;55338;43.062;25.624;2022-08-05T00:58:36;20.80;78.60
68387;DHT22;55338;43.062;25.624;2022-08-05T01:01:03;20.80;78.70
68387;DHT22;55338;43.062;25.624;2022-08-05T01:03:29;20.80;78.30
68387;DHT22;55338;43.062;25.624;2022-08-05T01:05:55;20.80;78.40
68387;DHT22;55338;43.062;25.624;2022-08-05T01:08:21;20.80;78.40
68387;DHT22;55338;43.062;25.624;2022-08-05T01:10:57;20.80;78.30
68387;DHT22;55338;43.062;25.624;2022-08-05T01:13:36;20.80;78.80
68387;DHT22;55338;43.062;25.624;2022-08-05T01:16:13;20.70;78.40
68387;DHT22;55338;43.062;25.624;2022-08-05T01:18:45;20.70;77.70
68387;DHT22;55338;43.062;25.624;2022-08-05T01:30:01;20.80;78.70
68387;DHT22;55338;43.062;25.624;2022-08-05T01:32:32;20.80;79.10
68387;DHT22;55338;43.062;25.624;2022-08-05T01:35:09;20.80;79.60
68387;DHT22;55338;43.062;25.624;2022-08-05T01:37:48;20.70;79.80
68387;DHT22;55338;43.062;25.624;2022-08-05T01:40:16;20.70;79.60
68387;DHT22;55338;43.062;25.624;2022-08-05T01:42:45;20.70;79.80
68387;DHT22;55338;43.062;25.624;2022-08-05T01:45:12;20.70;79.60
68387;DHT22;55338;43.062;25.624;2022-08-05T01:47:39;20.70;79.30
68387;DHT22;55338;43.062;25.624;2022-08-05T01:50:23;20.70;79.20
68387;DHT22;55338;43.062;25.624;2022-08-05T01:52:50;20.60;79.50
68387;DHT22;55338;43.062;25.624;2022-08-05T01:55:20;20.60;79.50
68387;DHT22;55338;43.062;25.624;2022-08-05T01:57:48;20.60;79.00
68387;DHT22;55338;43.062;25.624;2022-08-05T02:00:16;20.50;79.20
68387;DHT22;55338;43.062;25.624;2022-08-05T02:02:48;20.50;79.40
68387;DHT22;55338;43.062;25.624;2022-08-05T02:05:19;20.50;78.70
68387;DHT22;55338;43.062;25.624;2022-08-05T02:07:46;20.50;78.70
68387;DHT22;55338;43.062;25.624;2022-08-05T02:10:12;20.50;78.90
68387;DHT22;55338;43.062;25.624;2022-08-05T02:13:02;20.50;79.20
68387;DHT22;55338;43.062;25.624;2022-08-05T02:15:34;20.50;78.80
68387;DHT22;55338;43.062;25.624;2022-08-05T02:18:09;20.40;79.00
68387;DHT22;55338;43.062;25.624;2022-08-05T02:20:56;20.40;79.60
68387;DHT22;55338;43.062;25.624;2022-08-05T02:23:27;20.30;80.10
68387;DHT22;55338;43.062;25.624;2022-08-05T02:25:54;20.30;80.10
68387;DHT22;55338;43.062;25.624;2022-08-05T02:28:24;20.20;80.20
68387;DHT22;55338;43.062;25.624;2022-08-05T02:30:55;20.20;80.40
68387;DHT22;55338;43.062;25.624;2022-08-05T02:33:23;20.20;80.50
68387;DHT22;55338;43.062;25.624;2022-08-05T02:35:53;20.10;80.50
68387;DHT22;55338;43.062;25.624;2022-08-05T02:38:20;20.10;80.70
68387;DHT22;55338;43.062;25.624;2022-08-05T02:40:47;20.10;80.70
68387;DHT22;55338;43.062;25.624;2022-08-05T02:43:13;20.10;80.50
68387;DHT22;55338;43.062;25.624;2022-08-05T02:45:40;20.10;80.50
68387;DHT22;55338;43.062;25.624;2022-08-05T02:48:07;20.00;80.80
68387;DHT22;55338;43.062;25.624;2022-08-05T02:50:35;20.00;81.40
68387;DHT22;55338;43.062;25.624;2022-08-05T02:53:02;19.90;81.20
68387;DHT22;55338;43.062;25.624;2022-08-05T02:55:29;19.90;81.40
68387;DHT22;55338;43.062;25.624;2022-08-05T02:57:57;19.80;81.40
68387;DHT22;55338;43.062;25.624;2022-08-05T03:00:24;19.80;81.60
68387;DHT22;55338;43.062;25.624;2022-08-05T03:02:51;19.70;81.50
68387;DHT22;55338;43.062;25.624;2022-08-05T03:05:18;19.70;81.50
68387;DHT22;55338;43.062;25.624;2022-08-05T03:07:44;19.70;81.50
68387;DHT22;55338;43.062;25.624;2022-08-05T03:10:10;19.70;81.70
68387;DHT22;55338;43.062;25.624;2022-08-05T03:12:39;19.70;82.40
68387;DHT22;55338;43.062;25.624;2022-08-05T03:15:07;19.70;82.50
68387;DHT22;55338;43.062;25.624;2022-08-05T03:17:33;19.60;82.40
68387;DHT22;55338;43.062;25.624;2022-08-05T03:19:59;19.50;82.70
68387;DHT22;55338;43.062;25.624;2022-08-05T03:22:26;19.50;82.50
68387;DHT22;55338;43.062;25.624;2022-08-05T03:24:52;19.50;82.50
68387;DHT22;55338;43.062;25.624;2022-08-05T03:27:19;19.50;82.40
68387;DHT22;55338;43.062;25.624;2022-08-05T03:29:45;19.50;82.70
68387;DHT22;55338;43.062;25.624;2022-08-05T03:32:12;19.50;82.90
68387;DHT22;55338;43.062;25.624;2022-08-05T03:34:38;19.50;82.90
68387;DHT22;55338;43.062;25.624;2022-08-05T03:37:05;19.50;82.90
68387;DHT22;55338;43.062;25.624;2022-08-05T03:39:31;19.50;83.20
68387;DHT22;55338;43.062;25.624;2022-08-05T03:41:57;19.50;82.90
68387;DHT22;55338;43.062;25.624;2022-08-05T03:44:23;19.50;82.60
68387;DHT22;55338;43.062;25.624;2022-08-05T03:46:49;19.60;82.80
68387;DHT22;55338;43.062;25.624;2022-08-05T03:49:15;19.60;82.70
68387;DHT22;55338;43.062;25.624;2022-08-05T03:52:00;19.60;82.40
68387;DHT22;55338;43.062;25.624;2022-08-05T03:54:42;19.70;82.50
68387;DHT22;55338;43.062;25.624;2022-08-05T03:57:11;19.80;82.00
68387;DHT22;55338;43.062;25.624;2022-08-05T03:59:41;19.90;81.60
68387;DHT22;55338;43.062;25.624;2022-08-05T04:02:09;20.00;80.90
68387;DHT22;55338;43.062;25.624;2022-08-05T04:04:35;20.10;80.40
68387;DHT22;55338;43.062;25.624;2022-08-05T04:07:02;20.30;79.70
68387;DHT22;55338;43.062;25.624;2022-08-05T04:09:30;20.40;79.30
68387;DHT22;55338;43.062;25.624;2022-08-05T04:11:56;20.60;78.70
68387;DHT22;55338;43.062;25.624;2022-08-05T04:14:25;20.70;78.20
68387;DHT22;55338;43.062;25.624;2022-08-05T04:16:51;20.80;77.70
68387;DHT22;55338;43.062;25.624;2022-08-05T04:19:18;20.80;78.30
68387;DHT22;55338;43.062;25.624;2022-08-05T04:21:43;20.90;77.60
68387;DHT22;55338;43.062;25.624;2022-08-05T04:24:09;21.00;76.80
68387;DHT22;55338;43.062;25.624;2022-08-05T04:26:35;21.10;76.30
68387;DHT22;55338;43.062;25.624;2022-08-05T04:29:01;21.30;75.70
68387;DHT22;55338;43.062;25.624;2022-08-05T04:31:27;21.50;74.90
68387;DHT22;55338;43.062;25.624;2022-08-05T04:33:52;21.60;74.20
68387;DHT22;55338;43.062;25.624;2022-08-05T04:36:18;21.80;73.60
68387;DHT22;55338;43.062;25.624;2022-08-05T04:38:44;21.90;72.90
68387;DHT22;55338;43.062;25.624;2022-08-05T04:41:10;22.00;72.70
68387;DHT22;55338;43.062;25.624;2022-08-05T04:43:37;22.20;72.50
68387;DHT22;55338;43.062;25.624;2022-08-05T04:46:03;22.30;72.50
68387;DHT22;55338;43.062;25.624;2022-08-05T04:48:29;22.50;72.20
68387;DHT22;55338;43.062;25.624;2022-08-05T04:50:56;22.60;71.10
68387;DHT22;55338;43.062;25.624;2022-08-05T04:53:22;22.80;70.70
68387;DHT22;55338;43.062;25.624;2022-08-05T04:55:47;22.90;70.00
68387;DHT22;55338;43.062;25.624;2022-08-05T04:58:16;23.00;69.40
68387;DHT22;55338;43.062;25.624;2022-08-05T05:00:42;23.10;69.00
68387;DHT22;55338;43.062;25.624;2022-08-05T05:03:09;23.20;68.50
68387;DHT22;55338;43.062;25.624;2022-08-05T05:05:35;23.40;67.70
68387;DHT22;55338;43.062;25.624;2022-08-05T05:08:06;23.60;67.40
68387;DHT22;55338;43.062;25.624;2022-08-05T05:10:42;23.70;66.50
68387;DHT22;55338;43.062;25.624;2022-08-05T05:13:13;23.90;66.10
68387;DHT22;55338;43.062;25.624;2022-08-05T05:15:41;24.00;65.40
68387;DHT22;55338;43.062;25.624;2022-08-05T05:18:07;24.10;65.00
68387;DHT22;55338;43.062;25.624;2022-08-05T05:20:34;24.30;64.80
68387;DHT22;55338;43.062;25.624;2022-08-05T05:23:01;24.50;64.40
68387;DHT22;55338;43.062;25.624;2022-08-05T05:25:29;24.60;63.80
68387;DHT22;55338;43.062;25.624;2022-08-05T05:27:55;24.70;63.70
68387;DHT22;55338;43.062;25.624;2022-08-05T05:30:21;24.80;62.80
68387;DHT22;55338;43.062;25.624;2022-08-05T05:32:47;24.90;62.10
68387;DHT22;55338;43.062;25.624;2022-08-05T05:35:14;25.00;60.80
68387;DHT22;55338;43.062;25.624;2022-08-05T05:37:52;25.20;60.50
68387;DHT22;55338;43.062;25.624;2022-08-05T05:40:23;25.40;59.80
68387;DHT22;55338;43.062;25.624;2022-08-05T05:42:49;25.70;59.00
68387;DHT22;55338;43.062;25.624;2022-08-05T05:45:16;26.00;58.20
68387;DHT22;55338;43.062;25.624;2022-08-05T05:47:42;26.30;57.20
68387;DHT22;55338;43.062;25.624;2022-08-05T05:50:10;26.60;56.30
68387;DHT22;55338;43.062;25.624;2022-08-05T05:52:36;26.80;55.20
68387;DHT22;55338;43.062;25.624;2022-08-05T05:55:07;27.10;55.10
68387;DHT22;55338;43.062;25.624;2022-08-05T05:57:34;27.30;54.40
68387;DHT22;55338;43.062;25.624;2022-08-05T06:00:00;27.50;54.30
68387;DHT22;55338;43.062;25.624;2022-08-05T06:02:26;27.60;53.50
68387;DHT22;55338;43.062;25.624;2022-08-05T06:04:52;27.80;52.50
68387;DHT22;55338;43.062;25.624;2022-08-05T06:07:18;28.00;52.40
68387;DHT22;55338;43.062;25.624;2022-08-05T06:09:43;28.30;51.50
68387;DHT22;55338;43.062;25.624;2022-08-05T06:12:09;28.70;50.20
68387;DHT22;55338;43.062;25.624;2022-08-05T06:14:35;29.00;49.60
68387;DHT22;55338;43.062;25.624;2022-08-05T06:17:01;29.10;49.40
68387;DHT22;55338;43.062;25.624;2022-08-05T06:19:27;29.40;48.30
68387;DHT22;55338;43.062;25.624;2022-08-05T06:21:53;29.90;47.30
68387;DHT22;55338;43.062;25.624;2022-08-05T06:24:19;30.40;46.40
68387;DHT22;55338;43.062;25.624;2022-08-05T06:26:45;30.60;45.00
68387;DHT22;55338;43.062;25.624;2022-08-05T06:29:11;31.00;44.70
68387;DHT22;55338;43.062;25.624;2022-08-05T06:31:37;31.20;43.90
68387;DHT22;55338;43.062;25.624;2022-08-05T06:34:03;31.50;42.70
68387;DHT22;55338;43.062;25.624;2022-08-05T06:36:30;31.80;42.10
68387;DHT22;55338;43.062;25.624;2022-08-05T06:38:55;32.20;41.10
68387;DHT22;55338;43.062;25.624;2022-08-05T06:41:21;32.40;40.70
68387;DHT22;55338;43.062;25.624;2022-08-05T06:43:48;32.70;40.00
68387;DHT22;55338;43.062;25.624;2022-08-05T06:46:14;32.90;38.70
68387;DHT22;55338;43.062;25.624;2022-08-05T06:48:40;32.90;38.60
68387;DHT22;55338;43.062;25.624;2022-08-05T06:51:06;33.20;38.80
68387;DHT22;55338;43.062;25.624;2022-08-05T06:53:32;33.60;38.20
68387;DHT22;55338;43.062;25.624;2022-08-05T06:55:59;33.80;36.60
68387;DHT22;55338;43.062;25.624;2022-08-05T06:58:26;34.10;36.90
68387;DHT22;55338;43.062;25.624;2022-08-05T07:00:52;34.40;36.40
68387;DHT22;55338;43.062;25.624;2022-08-05T07:03:18;34.50;35.40
68387;DHT22;55338;43.062;25.624;2022-08-05T07:05:44;34.80;35.20
68387;DHT22;55338;43.062;25.624;2022-08-05T07:08:10;35.30;34.70
68387;DHT22;55338;43.062;25.624;2022-08-05T07:10:36;35.70;33.10
68387;DHT22;55338;43.062;25.624;2022-08-05T07:13:01;35.20;33.70
68387;DHT22;55338;43.062;25.624;2022-08-05T07:15:46;35.50;33.30
68387;DHT22;55338;43.062;25.624;2022-08-05T07:18:30;35.80;32.80
68387;DHT22;55338;43.062;25.624;2022-08-05T07:20:56;36.10;32.00
68387;DHT22;55338;43.062;25.624;2022-08-05T07:23:22;36.10;31.60
68387;DHT22;55338;43.062;25.624;2022-08-05T07:25:48;36.50;31.00
68387;DHT22;55338;43.062;25.624;2022-08-05T07:28:13;36.80;30.20
68387;DHT22;55338;43.062;25.624;2022-08-05T07:30:39;36.90;29.60
68387;DHT22;55338;43.062;25.624;2022-08-05T07:33:07;37.00;29.70
68387;DHT22;55338;43.062;25.624;2022-08-05T07:35:34;37.30;29.10
68387;DHT22;55338;43.062;25.624;2022-08-05T07:37:59;36.90;27.80
68387;DHT22;55338;43.062;25.624;2022-08-05T07:40:25;36.50;29.40
68387;DHT22;55338;43.062;25.624;2022-08-05T07:42:51;36.60;28.70
68387;DHT22;55338;43.062;25.624;2022-08-05T07:45:17;36.80;28.40
68387;DHT22;55338;43.062;25.624;2022-08-05T07:47:43;36.80;27.70
68387;DHT22;55338;43.062;25.624;2022-08-05T07:50:09;36.90;27.50
68387;DHT22;55338;43.062;25.624;2022-08-05T07:52:39;37.20;27.90
68387;DHT22;55338;43.062;25.624;2022-08-05T07:55:06;37.00;28.10
68387;DHT22;55338;43.062;25.624;2022-08-05T07:57:32;36.90;28.40
68387;DHT22;55338;43.062;25.624;2022-08-05T07:59:57;37.00;28.40
68387;DHT22;55338;43.062;25.624;2022-08-05T08:02:24;37.00;28.10
68387;DHT22;55338;43.062;25.624;2022-08-05T08:04:51;37.20;27.80
68387;DHT22;55338;43.062;25.624;2022-08-05T08:07:17;37.40;26.70
68387;DHT22;55338;43.062;25.624;2022-08-05T08:09:44;37.60;25.90
68387;DHT22;55338;43.062;25.624;2022-08-05T08:12:10;37.40;26.30
68387;DHT22;55338;43.062;25.624;2022-08-05T08:14:40;37.20;26.70
68387;DHT22;55338;43.062;25.624;2022-08-05T08:17:06;37.80;26.10
68387;DHT22;55338;43.062;25.624;2022-08-05T08:19:42;38.20;25.80
68387;DHT22;55338;43.062;25.624;2022-08-05T08:22:08;38.80;24.30
68387;DHT22;55338;43.062;25.624;2022-08-05T08:24:35;39.10;23.90
68387;DHT22;55338;43.062;25.624;2022-08-05T08:27:02;39.70;22.40
68387;DHT22;55338;43.062;25.624;2022-08-05T08:29:28;39.70;22.00
68387;DHT22;55338;43.062;25.624;2022-08-05T08:31:54;39.50;23.30
68387;DHT22;55338;43.062;25.624;2022-08-05T08:34:22;39.50;22.80
68387;DHT22;55338;43.062;25.624;2022-08-05T08:36:48;39.80;22.40
68387;DHT22;55338;43.062;25.624;2022-08-05T08:39:15;39.50;22.30
68387;DHT22;55338;43.062;25.624;2022-08-05T08:41:47;40.00;22.60
68387;DHT22;55338;43.062;25.624;2022-08-05T08:44:18;39.70;21.50
68387;DHT22;55338;43.062;25.624;2022-08-05T08:46:46;39.80;22.00
68387;DHT22;55338;43.062;25.624;2022-08-05T08:49:13;39.90;22.50
68387;DHT22;55338;43.062;25.624;2022-08-05T08:51:40;39.90;20.90
68387;DHT22;55338;43.062;25.624;2022-08-05T08:54:07;39.60;21.80
68387;DHT22;55338;43.062;25.624;2022-08-05T08:56:39;39.90;21.30
68387;DHT22;55338;43.062;25.624;2022-08-05T08:59:06;40.30;21.00
68387;DHT22;55338;43.062;25.624;2022-08-05T09:01:32;40.50;20.40
68387;DHT22;55338;43.062;25.624;2022-08-05T09:03:58;40.30;21.10
68387;DHT22;55338;43.062;25.624;2022-08-05T09:06:29;40.50;20.20
68387;DHT22;55338;43.062;25.624;2022-08-05T09:08:59;40.80;20.00
68387;DHT22;55338;43.062;25.624;2022-08-05T09:11:25;41.00;20.00
68387;DHT22;55338;43.062;25.624;2022-08-05T09:13:52;40.80;19.80
68387;DHT22;55338;43.062;25.624;2022-08-05T09:16:18;41.00;19.80
68387;DHT22;55338;43.062;25.624;2022-08-05T09:18:44;41.40;18.90
68387;DHT22;55338;43.062;25.624;2022-08-05T09:21:10;41.50;18.50
68387;DHT22;55338;43.062;25.624;2022-08-05T09:23:36;41.40;19.10
68387;DHT22;55338;43.062;25.624;2022-08-05T09:26:09;41.10;19.70
68387;DHT22;55338;43.062;25.624;2022-08-05T09:28:36;41.40;19.00
68387;DHT22;55338;43.062;25.624;2022-08-05T09:31:05;41.00;20.30
68387;DHT22;55338;43.062;25.624;2022-08-05T09:33:31;41.60;18.90
68387;DHT22;55338;43.062;25.624;2022-08-05T09:36:02;41.50;19.90
68387;DHT22;55338;43.062;25.624;2022-08-05T09:38:29;41.80;18.90
68387;DHT22;55338;43.062;25.624;2022-08-05T09:41:06;41.40;19.80
68387;DHT22;55338;43.062;25.624;2022-08-05T09:43:35;41.60;19.60
68387;DHT22;55338;43.062;25.624;2022-08-05T09:46:03;41.60;19.30
68387;DHT22;55338;43.062;25.624;2022-08-05T09:48:32;41.80;18.80
68387;DHT22;55338;43.062;25.624;2022-08-05T09:51:07;42.20;18.80
68387;DHT22;55338;43.062;25.624;2022-08-05T09:54:05;41.80;18.60
68387;DHT22;55338;43.062;25.624;2022-08-05T09:56:34;42.00;19.30
68387;DHT22;55338;43.062;25.624;2022-08-05T09:59:08;42.00;19.50
68387;DHT22;55338;43.062;25.624;2022-08-05T10:01:36;42.00;19.30
68387;DHT22;55338;43.062;25.624;2022-08-05T10:04:07;42.30;18.40
68387;DHT22;55338;43.062;25.624;2022-08-05T10:06:35;42.80;17.80
68387;DHT22;55338;43.062;25.624;2022-08-05T10:09:16;42.60;18.00
68387;DHT22;55338;43.062;25.624;2022-08-05T10:11:43;42.50;18.40
68387;DHT22;55338;43.062;25.624;2022-08-05T10:14:30;42.50;18.60
68387;DHT22;55338;43.062;25.624;2022-08-05T10:17:11;42.60;18.30
68387;DHT22;55338;43.062;25.624;2022-08-05T10:19:38;43.20;18.10
68387;DHT22;55338;43.062;25.624;2022-08-05T10:22:04;42.60;17.70
68387;DHT22;55338;43.062;25.624;2022-08-05T10:24:32;41.40;19.70
68387;DHT22;55338;43.062;25.624;2022-08-05T10:26:58;40.70;21.10
68387;DHT22;55338;43.062;25.624;2022-08-05T10:29:25;40.20;22.10
68387;DHT22;55338;43.062;25.624;2022-08-05T10:31:54;40.00;23.00
68387;DHT22;55338;43.062;25.624;2022-08-05T10:34:21;41.10;21.20
68387;DHT22;55338;43.062;25.624;2022-08-05T10:36:47;41.70;20.00
68387;DHT22;55338;43.062;25.624;2022-08-05T10:39:17;41.20;20.40
68387;DHT22;55338;43.062;25.624;2022-08-05T10:42:08;40.90;20.60
68387;DHT22;55338;43.062;25.624;2022-08-05T10:44:36;41.90;19.40
68387;DHT22;55338;43.062;25.624;2022-08-05T10:47:11;42.60;18.00
68387;DHT22;55338;43.062;25.624;2022-08-05T10:52:44;42.40;18.00
68387;DHT22;55338;43.062;25.624;2022-08-05T10:55:12;42.60;17.90
68387;DHT22;55338;43.062;25.624;2022-08-05T10:57:39;43.30;17.50
68387;DHT22;55338;43.062;25.624;2022-08-05T11:00:14;42.90;16.80
68387;DHT22;55338;43.062;25.624;2022-08-05T11:03:07;41.60;17.40
68387;DHT22;55338;43.062;25.624;2022-08-05T11:05:37;41.50;18.00
68387;DHT22;55338;43.062;25.624;2022-08-05T11:08:08;41.50;17.40
68387;DHT22;55338;43.062;25.624;2022-08-05T11:10:35;41.30;17.50
68387;DHT22;55338;43.062;25.624;2022-08-05T11:13:02;41.90;16.70
68387;DHT22;55338;43.062;25.624;2022-08-05T11:15:32;42.40;16.90
68387;DHT22;55338;43.062;25.624;2022-08-05T11:18:25;42.40;17.00
68387;DHT22;55338;43.062;25.624;2022-08-05T11:20:51;41.30;18.10
68387;DHT22;55338;43.062;25.624;2022-08-05T11:26:20;39.80;20.20
68387;DHT22;55338;43.062;25.624;2022-08-05T11:28:51;39.20;21.30
68387;DHT22;55338;43.062;25.624;2022-08-05T11:31:21;39.00;21.80
68387;DHT22;55338;43.062;25.624;2022-08-05T11:36:15;38.50;22.30
68387;DHT22;55338;43.062;25.624;2022-08-05T11:41:22;39.00;21.90
68387;DHT22;55338;43.062;25.624;2022-08-05T11:44:11;39.30;21.30
68387;DHT22;55338;43.062;25.624;2022-08-05T11:46:42;40.00;20.80
68387;DHT22;55338;43.062;25.624;2022-08-05T11:49:11;40.70;19.40
68387;DHT22;55338;43.062;25.624;2022-08-05T11:51:41;41.50;17.70
68387;DHT22;55338;43.062;25.624;2022-08-05T11:54:12;41.50;17.60
68387;DHT22;55338;43.062;25.624;2022-08-05T11:56:46;40.60;19.30
68387;DHT22;55338;43.062;25.624;2022-08-05T11:59:23;41.30;18.30
68387;DHT22;55338;43.062;25.624;2022-08-05T12:02:04;41.70;17.90
68387;DHT22;55338;43.062;25.624;2022-08-05T12:04:44;41.40;17.90
68387;DHT22;55338;43.062;25.624;2022-08-05T12:07:15;40.80;19.00
68387;DHT22;55338;43.062;25.624;2022-08-05T12:09:46;40.30;19.90
68387;DHT22;55338;43.062;25.624;2022-08-05T12:12:12;40.10;20.70
68387;DHT22;55338;43.062;25.624;2022-08-05T12:14:39;40.50;19.50
68387;DHT22;55338;43.062;25.624;2022-08-05T12:17:10;40.10;20.20
68387;DHT22;55338;43.062;25.624;2022-08-05T12:22:13;39.10;21.50
68387;DHT22;55338;43.062;25.624;2022-08-05T12:24:41;39.00;22.10
68387;DHT22;55338;43.062;25.624;2022-08-05T12:27:09;39.00;22.10
68387;DHT22;55338;43.062;25.624;2022-08-05T12:29:35;39.80;20.90
68387;DHT22;55338;43.062;25.624;2022-08-05T12:32:01;40.50;19.30
68387;DHT22;55338;43.062;25.624;2022-08-05T12:34:34;41.00;18.80
68387;DHT22;55338;43.062;25.624;2022-08-05T12:37:06;41.30;17.40
68387;DHT22;55338;43.062;25.624;2022-08-05T12:39:37;41.20;17.80
68387;DHT22;55338;43.062;25.624;2022-08-05T12:42:08;41.40;17.50
68387;DHT22;55338;43.062;25.624;2022-08-05T12:44:35;41.60;17.20
68387;DHT22;55338;43.062;25.624;2022-08-05T12:47:01;41.70;17.00
68387;DHT22;55338;43.062;25.624;2022-08-05T12:49:38;42.00;16.90
68387;DHT22;55338;43.062;25.624;2022-08-05T12:52:14;42.40;16.60
68387;DHT22;55338;43.062;25.624;2022-08-05T12:54:41;42.00;16.90
68387;DHT22;55338;43.062;25.624;2022-08-05T12:57:08;40.60;18.80
68387;DHT22;55338;43.062;25.624;2022-08-05T13:02:11;39.10;20.50
68387;DHT22;55338;43.062;25.624;2022-08-05T13:04:41;39.50;20.00
68387;DHT22;55338;43.062;25.624;2022-08-05T13:07:10;39.90;18.50
68387;DHT22;55338;43.062;25.624;2022-08-05T13:09:47;40.50;17.50
68387;DHT22;55338;43.062;25.624;2022-08-05T13:12:15;41.00;17.20
68387;DHT22;55338;43.062;25.624;2022-08-05T13:14:49;41.40;16.60
68387;DHT22;55338;43.062;25.624;2022-08-05T13:17:17;41.80;15.80
68387;DHT22;55338;43.062;25.624;2022-08-05T13:22:30;42.20;15.30
68387;DHT22;55338;43.062;25.624;2022-08-05T13:25:02;41.90;15.50
68387;DHT22;55338;43.062;25.624;2022-08-05T13:27:31;42.00;16.20
68387;DHT22;55338;43.062;25.624;2022-08-05T13:29:57;42.60;15.30
68387;DHT22;55338;43.062;25.624;2022-08-05T13:32:23;42.90;14.50
68387;DHT22;55338;43.062;25.624;2022-08-05T13:34:49;43.10;14.80
68387;DHT22;55338;43.062;25.624;2022-08-05T13:37:17;43.20;15.10
68387;DHT22;55338;43.062;25.624;2022-08-05T13:39:43;43.50;14.40
68387;DHT22;55338;43.062;25.624;2022-08-05T13:42:09;43.50;14.10
68387;DHT22;55338;43.062;25.624;2022-08-05T13:44:36;42.40;15.20
68387;DHT22;55338;43.062;25.624;2022-08-05T13:47:02;41.50;16.50
68387;DHT22;55338;43.062;25.624;2022-08-05T13:49:28;41.60;16.50
68387;DHT22;55338;43.062;25.624;2022-08-05T13:51:54;41.30;17.00
68387;DHT22;55338;43.062;25.624;2022-08-05T13:54:19;41.30;17.00
68387;DHT22;55338;43.062;25.624;2022-08-05T13:56:45;41.30;17.00
68387;DHT22;55338;43.062;25.624;2022-08-05T13:59:11;41.40;16.20
68387;DHT22;55338;43.062;25.624;2022-08-05T14:01:37;40.80;16.90
68387;DHT22;55338;43.062;25.624;2022-08-05T14:04:03;40.80;16.80
68387;DHT22;55338;43.062;25.624;2022-08-05T14:06:48;40.50;18.10
68387;DHT22;55338;43.062;25.624;2022-08-05T14:09:13;40.80;17.30
68387;DHT22;55338;43.062;25.624;2022-08-05T14:11:39;41.30;16.80
68387;DHT22;55338;43.062;25.624;2022-08-05T14:14:08;41.40;16.30
68387;DHT22;55338;43.062;25.624;2022-08-05T14:16:34;41.70;15.90
68387;DHT22;55338;43.062;25.624;2022-08-05T14:19:00;41.70;15.50
68387;DHT22;55338;43.062;25.624;2022-08-05T14:21:26;41.60;15.40
68387;DHT22;55338;43.062;25.624;2022-08-05T14:23:52;41.30;16.00
68387;DHT22;55338;43.062;25.624;2022-08-05T14:26:17;41.30;15.80
68387;DHT22;55338;43.062;25.624;2022-08-05T14:28:43;41.30;16.40
68387;DHT22;55338;43.062;25.624;2022-08-05T14:31:10;41.20;16.70
68387;DHT22;55338;43.062;25.624;2022-08-05T14:33:36;41.00;16.70
68387;DHT22;55338;43.062;25.624;2022-08-05T14:36:02;40.90;15.90
68387;DHT22;55338;43.062;25.624;2022-08-05T14:38:28;40.80;16.10
68387;DHT22;55338;43.062;25.624;2022-08-05T14:40:54;40.80;16.30
68387;DHT22;55338;43.062;25.624;2022-08-05T14:43:20;41.00;16.20
68387;DHT22;55338;43.062;25.624;2022-08-05T14:45:46;40.60;16.00
68387;DHT22;55338;43.062;25.624;2022-08-05T14:48:12;40.30;16.70
68387;DHT22;55338;43.062;25.624;2022-08-05T14:50:38;39.90;16.60
68387;DHT22;55338;43.062;25.624;2022-08-05T14:53:03;39.40;17.50
68387;DHT22;55338;43.062;25.624;2022-08-05T14:55:29;38.70;18.90
68387;DHT22;55338;43.062;25.624;2022-08-05T14:57:55;38.10;19.50
68387;DHT22;55338;43.062;25.624;2022-08-05T15:00:22;37.90;20.00
68387;DHT22;55338;43.062;25.624;2022-08-05T15:02:48;37.70;20.20
68387;DHT22;55338;43.062;25.624;2022-08-05T15:05:14;37.30;20.50
68387;DHT22;55338;43.062;25.624;2022-08-05T15:07:39;37.00;21.30
68387;DHT22;55338;43.062;25.624;2022-08-05T15:10:06;37.00;21.70
68387;DHT22;55338;43.062;25.624;2022-08-05T15:12:32;36.90;21.70
68387;DHT22;55338;43.062;25.624;2022-08-05T15:14:58;36.90;21.80
68387;DHT22;55338;43.062;25.624;2022-08-05T15:17:24;36.80;21.90
68387;DHT22;55338;43.062;25.624;2022-08-05T15:19:50;36.60;22.30
68387;DHT22;55338;43.062;25.624;2022-08-05T15:22:16;36.50;23.00
68387;DHT22;55338;43.062;25.624;2022-08-05T15:24:41;36.50;23.00
68387;DHT22;55338;43.062;25.624;2022-08-05T15:27:09;36.60;22.90
68387;DHT22;55338;43.062;25.624;2022-08-05T15:29:34;36.60;23.20
68387;DHT22;55338;43.062;25.624;2022-08-05T15:32:00;36.60;24.00
68387;DHT22;55338;43.062;25.624;2022-08-05T15:34:26;36.60;24.60
68387;DHT22;55338;43.062;25.624;2022-08-05T15:36:52;36.40;24.90
68387;DHT22;55338;43.062;25.624;2022-08-05T15:39:18;36.20;25.10
68387;DHT22;55338;43.062;25.624;2022-08-05T15:41:43;36.00;25.50
68387;DHT22;55338;43.062;25.624;2022-08-05T15:44:09;35.80;25.50
68387;DHT22;55338;43.062;25.624;2022-08-05T15:46:35;35.60;25.90
68387;DHT22;55338;43.062;25.624;2022-08-05T15:49:02;35.50;26.30